createdAt,value
2022-10-25T00:01:31.143Z,99416.56
2022-10-25T00:03:58.727Z,99425.94
2022-10-25T00:06:25.551Z,99426.81
2022-10-25T00:08:52.523Z,99425.09
2022-10-25T00:11:28.346Z,99425.94
2022-10-25T00:13:58.145Z,99420.03
2022-10-25T00:16:29.355Z,99426.78
2022-10-25T00:18:56.496Z,99431.94
2022-10-25T00:21:24.309Z,99424.25
2022-10-25T00:23:52.536Z,99431.00
2022-10-25T00:26:20.588Z,99424.22
2022-10-25T00:28:47.348Z,99432.72
2022-10-25T00:31:16.778Z,99433.59
2022-10-25T00:33:44.834Z,99439.59
2022-10-25T00:36:22.019Z,99430.34
2022-10-25T00:38:49.114Z,99444.84
2022-10-25T00:41:19.801Z,99434.66
2022-10-25T00:43:57.221Z,99441.44
2022-10-25T00:46:31.987Z,99441.47
2022-10-25T00:49:15.464Z,99444.03
2022-10-25T00:51:53.643Z,99444.88
2022-10-25T00:54:32.132Z,99453.38
2022-10-25T00:57:06.165Z,99448.28
2022-10-25T00:59:32.998Z,99453.50
2022-10-25T01:02:00.524Z,99455.13
2022-10-25T01:04:31.537Z,99455.13
2022-10-25T01:07:00.738Z,99449.16
2022-10-25T01:09:31.925Z,99452.56
2022-10-25T01:11:58.707Z,99452.63
2022-10-25T01:14:26.866Z,99450.09
2022-10-25T01:17:18.963Z,99467.19
2022-10-25T01:20:36.460Z,99448.50
2022-10-25T01:23:55.798Z,99452.06
2022-10-25T01:26:56.586Z,99458.09
2022-10-25T01:29:55.105Z,99461.53
2022-10-25T01:32:33.680Z,99469.22
2022-10-25T01:35:16.209Z,99461.53
2022-10-25T01:38:13.182Z,99479.47
2022-10-25T01:41:00.411Z,99470.16
2022-10-25T01:43:41.706Z,99477.13
2022-10-25T01:46:36.494Z,99469.63
2022-10-25T01:49:14.608Z,99473.78
2022-10-25T01:51:41.346Z,99483.22
2022-10-25T01:54:22.441Z,99477.25
2022-10-25T01:57:04.404Z,99468.81
2022-10-25T01:59:56.754Z,99466.34
2022-10-25T02:02:36.321Z,99466.41
2022-10-25T02:05:18.100Z,99474.97
2022-10-25T02:08:18.157Z,99476.69
2022-10-25T02:11:05.456Z,99475.00
2022-10-25T02:13:58.581Z,99468.25
2022-10-25T02:16:29.357Z,99475.06
2022-10-25T02:19:03.871Z,99470.00
2022-10-25T02:21:35.577Z,99483.56
2022-10-25T02:24:12.332Z,99473.31
2022-10-25T02:26:43.328Z,99478.44
2022-10-25T02:29:13.525Z,99480.13
2022-10-25T02:31:40.760Z,99475.81
2022-10-25T02:34:07.473Z,99478.28
2022-10-25T02:36:34.607Z,99475.59
2022-10-25T02:39:02.212Z,99473.84
2022-10-25T02:41:29.034Z,99475.47
2022-10-25T02:43:55.837Z,99484.69
2022-10-25T02:46:23.972Z,99483.75
2022-10-25T02:48:51.995Z,99489.63
2022-10-25T02:51:18.990Z,99488.75
2022-10-25T02:53:46.073Z,99489.44
2022-10-25T02:56:17.512Z,99491.00
2022-10-25T02:58:46.727Z,99496.09
2022-10-25T03:01:14.914Z,99497.66
2022-10-25T03:03:42.171Z,99493.38
2022-10-25T03:06:10.631Z,99486.38
2022-10-25T03:08:39.714Z,99485.50
2022-10-25T03:11:08.995Z,99494.84
2022-10-25T03:13:36.351Z,99491.38
2022-10-25T03:16:03.951Z,99494.75
2022-10-25T03:18:31.097Z,99492.19
2022-10-25T03:20:59.619Z,99494.84
2022-10-25T03:23:27.066Z,99495.84
2022-10-25T03:25:59.525Z,99490.03
2022-10-25T03:28:27.772Z,99491.78
2022-10-25T03:30:57.119Z,99497.84
2022-10-25T03:33:25.435Z,99509.00
2022-10-25T03:35:55.827Z,99510.88
2022-10-25T03:38:23.126Z,99521.97
2022-10-25T03:40:49.884Z,99528.88
2022-10-25T03:43:16.766Z,99530.63
2022-10-25T03:45:43.555Z,99535.00
2022-10-25T03:48:10.447Z,99524.84
2022-10-25T03:50:37.266Z,99526.72
2022-10-25T03:53:05.580Z,99528.56
2022-10-25T03:55:34.232Z,99533.81
2022-10-25T03:58:01.166Z,99533.91
2022-10-25T04:00:28.630Z,99550.19
2022-10-25T04:03:01.793Z,99549.47
2022-10-25T04:05:30.649Z,99557.53
2022-10-25T04:07:58.083Z,99546.75
2022-10-25T04:10:25.656Z,99524.09
2022-10-25T04:12:54.527Z,99538.00
2022-10-25T04:15:23.998Z,99551.88
2022-10-25T04:17:54.559Z,99553.72
2022-10-25T04:20:21.936Z,99554.72
2022-10-25T04:22:56.613Z,99559.06
2022-10-25T04:25:25.797Z,99555.69
2022-10-25T04:27:52.616Z,99563.41
2022-10-25T04:30:20.114Z,99569.47
2022-10-25T04:32:47.145Z,99574.59
2022-10-25T04:35:14.382Z,99573.78
2022-10-25T04:37:41.084Z,99581.47
2022-10-25T04:40:08.945Z,99571.31
2022-10-25T04:42:36.010Z,99573.16
2022-10-25T04:45:03.087Z,99580.06
2022-10-25T04:47:33.962Z,99580.16
2022-10-25T04:50:00.867Z,99581.03
2022-10-25T04:52:29.855Z,99587.88
2022-10-25T04:54:57.082Z,99593.91
2022-10-25T04:57:24.473Z,99591.34
2022-10-25T04:59:52.548Z,99590.53
2022-10-25T05:02:19.397Z,99595.63
2022-10-25T05:04:46.230Z,99586.28
2022-10-25T05:07:13.001Z,99587.09
2022-10-25T05:09:42.672Z,99582.88
2022-10-25T05:12:11.907Z,99593.97
2022-10-25T05:14:38.603Z,99588.00
2022-10-25T05:17:05.463Z,99589.75
2022-10-25T05:19:32.140Z,99597.44
2022-10-25T05:21:58.976Z,99602.59
2022-10-25T05:24:25.722Z,99600.09
2022-10-25T05:26:52.412Z,99595.84
2022-10-25T05:29:19.163Z,99595.06
2022-10-25T05:31:45.849Z,99602.72
2022-10-25T05:34:12.604Z,99602.75
2022-10-25T05:36:39.321Z,99599.34
2022-10-25T05:39:06.165Z,99596.81
2022-10-25T05:41:36.066Z,99604.47
2022-10-25T05:44:05.666Z,99598.53
2022-10-25T05:46:32.784Z,99607.88
2022-10-25T05:49:00.114Z,99607.81
2022-10-25T05:51:35.900Z,99603.53
2022-10-25T05:54:09.249Z,99612.94
2022-10-25T05:56:36.805Z,99612.94
2022-10-25T05:59:12.497Z,99618.03
2022-10-25T06:01:45.288Z,99615.50
2022-10-25T06:04:13.380Z,99612.94
2022-10-25T06:06:41.866Z,99623.09
2022-10-25T06:09:09.691Z,99614.63
2022-10-25T06:11:37.961Z,99620.59
2022-10-25T06:14:06.235Z,99623.94
2022-10-25T06:16:33.713Z,99623.97
2022-10-25T06:19:00.454Z,99634.16
2022-10-25T06:21:29.667Z,99633.38
2022-10-25T06:23:58.842Z,99635.06
2022-10-25T06:26:29.663Z,99640.19
2022-10-25T06:29:00.134Z,99640.25
2022-10-25T06:31:27.603Z,99640.28
2022-10-25T06:33:54.392Z,99639.41
2022-10-25T06:36:26.939Z,99655.47
2022-10-25T06:38:53.805Z,99658.78
2022-10-25T06:41:23.794Z,99660.38
2022-10-25T06:43:51.342Z,99662.75
2022-10-25T06:46:25.271Z,99676.25
2022-10-25T06:48:54.321Z,99675.13
2022-10-25T06:51:23.050Z,99684.78
2022-10-25T06:53:58.202Z,99687.28
2022-10-25T06:56:26.412Z,99690.50
2022-10-25T06:58:53.601Z,99690.22
2022-10-25T07:01:23.246Z,99687.59
2022-10-25T07:03:51.045Z,99690.31
2022-10-25T07:06:35.303Z,99689.72
2022-10-25T07:09:02.541Z,99696.78
2022-10-25T07:11:32.613Z,99705.41
2022-10-25T07:14:00.611Z,99707.53
2022-10-25T07:16:28.899Z,99702.28
2022-10-25T07:19:04.423Z,99708.38
2022-10-25T07:21:32.860Z,99708.66
2022-10-25T07:23:59.647Z,99706.44
2022-10-25T07:26:35.791Z,99716.16
2022-10-25T07:29:04.499Z,99712.22
2022-10-25T07:31:38.301Z,99714.19
2022-10-25T07:34:06.309Z,99713.63
2022-10-25T07:36:34.153Z,99724.03
2022-10-25T07:39:00.939Z,99725.84
2022-10-25T07:41:27.716Z,99725.19
2022-10-25T07:43:55.395Z,99722.72
2022-10-25T07:46:23.042Z,99721.06
2022-10-25T07:48:49.745Z,99735.72
2022-10-25T07:51:18.235Z,99728.13
2022-10-25T07:53:45.238Z,99735.84
2022-10-25T07:56:22.302Z,99735.91
2022-10-25T07:58:52.233Z,99732.53
2022-10-25T08:01:24.854Z,99745.28
2022-10-25T08:03:53.106Z,99736.72
2022-10-25T08:06:21.554Z,99746.06
2022-10-25T08:08:49.124Z,99738.38
2022-10-25T08:11:16.874Z,99740.84
2022-10-25T08:13:43.698Z,99747.41
2022-10-25T08:16:10.428Z,99753.88
2022-10-25T08:18:37.145Z,99754.22
2022-10-25T08:21:04.781Z,99762.09
2022-10-25T08:23:32.772Z,99748.88
2022-10-25T08:26:01.042Z,99751.72
2022-10-25T08:28:28.243Z,99756.16
2022-10-25T08:30:55.643Z,99750.56
2022-10-25T08:33:23.726Z,99753.63
2022-10-25T08:35:50.482Z,99753.41
2022-10-25T08:38:17.474Z,99754.03
2022-10-25T08:41:01.866Z,99753.16
2022-10-25T08:44:17.320Z,99756.53
2022-10-25T08:47:05.708Z,99758.31
2022-10-25T08:50:05.860Z,99766.00
2022-10-25T08:52:44.862Z,99762.00
2022-10-25T08:55:26.381Z,99768.84
2022-10-25T08:57:54.940Z,99767.97
2022-10-25T09:00:24.374Z,99773.72
2022-10-25T09:03:00.145Z,99774.47
2022-10-25T09:05:41.362Z,99772.75
2022-10-25T09:08:51.679Z,99778.78
2022-10-25T09:11:48.325Z,99776.47
2022-10-25T09:14:47.419Z,99776.72
2022-10-25T09:17:27.243Z,99775.00
2022-10-25T09:20:10.439Z,99789.19
2022-10-25T09:23:04.882Z,99781.28
2022-10-25T09:26:03.027Z,99788.91
2022-10-25T09:29:02.341Z,99796.59
2022-10-25T09:31:36.103Z,99798.91
2022-10-25T09:34:06.922Z,99803.84
2022-10-25T09:36:46.129Z,99794.66
2022-10-25T09:39:22.989Z,99797.13
2022-10-25T09:41:54.436Z,99807.34
2022-10-25T09:44:41.126Z,99811.78
2022-10-25T09:47:51.247Z,99808.09
2022-10-25T09:50:35.277Z,99806.34
2022-10-25T09:53:20.357Z,99802.03
2022-10-25T09:55:57.328Z,99807.25
2022-10-25T09:58:27.698Z,99807.25
2022-10-25T10:01:04.450Z,99809.13
2022-10-25T10:03:35.341Z,99817.06
2022-10-25T10:06:21.096Z,99818.25
2022-10-25T10:08:56.888Z,99820.22
2022-10-25T10:11:24.448Z,99827.47
2022-10-25T10:14:03.924Z,99824.28
2022-10-25T10:16:41.937Z,99827.88
2022-10-25T10:19:18.290Z,99819.25
2022-10-25T10:21:47.573Z,99814.78
2022-10-25T10:24:26.220Z,99819.44
2022-10-25T10:26:58.334Z,99821.47
2022-10-25T10:29:31.861Z,99820.84
2022-10-25T10:32:24.051Z,99827.00
2022-10-25T10:35:02.584Z,99835.13
2022-10-25T10:37:32.529Z,99827.50
2022-10-25T10:40:23.949Z,99821.50
2022-10-25T10:42:51.175Z,99813.13
2022-10-25T10:45:19.979Z,99813.63
2022-10-25T10:47:52.381Z,99826.50
2022-10-25T10:50:22.244Z,99814.03
2022-10-25T10:53:06.336Z,99818.22
2022-10-25T10:55:53.991Z,99817.84
2022-10-25T10:58:38.397Z,99815.69
2022-10-25T11:01:09.695Z,99813.19
2022-10-25T11:03:48.981Z,99804.75
2022-10-25T11:06:30.687Z,99805.56
2022-10-25T11:09:23.767Z,99807.44
2022-10-25T11:12:22.806Z,99813.72
2022-10-25T11:14:49.707Z,99811.22
2022-10-25T11:17:32.180Z,99814.97
2022-10-25T11:20:29.914Z,99817.31
2022-10-25T11:23:18.704Z,99822.44
2022-10-25T11:26:02.179Z,99822.22
2022-10-25T11:29:12.751Z,99828.34
2022-10-25T11:32:27.797Z,99838.88
2022-10-25T11:35:29.723Z,99834.56
2022-10-25T11:38:07.985Z,99841.88
2022-10-25T11:40:45.077Z,99831.94
2022-10-25T11:43:34.598Z,99835.00
2022-10-25T11:46:30.424Z,99837.94
2022-10-25T11:49:09.108Z,99835.44
2022-10-25T11:52:08.631Z,99841.59
2022-10-25T11:55:02.896Z,99834.59
2022-10-25T11:57:52.865Z,99834.53
2022-10-25T12:00:24.077Z,99816.25
2022-10-25T12:03:21.557Z,99836.69
2022-10-25T12:06:14.150Z,99827.88
2022-10-25T12:09:22.290Z,99827.66
2022-10-25T12:11:59.853Z,99830.09
2022-10-25T12:14:36.926Z,99819.66
2022-10-25T12:17:07.742Z,99825.47
2022-10-25T12:19:47.599Z,99814.03
2022-10-25T12:22:26.070Z,99812.84
2022-10-25T12:25:08.160Z,99816.78
2022-10-25T12:27:36.298Z,99812.06
2022-10-25T12:30:13.874Z,99812.38
2022-10-25T12:32:57.323Z,99817.06
2022-10-25T12:35:40.376Z,99814.06
2022-10-25T12:38:18.478Z,99807.66
2022-10-25T12:40:49.641Z,99812.47
2022-10-25T12:43:38.855Z,99802.03
2022-10-25T12:46:45.025Z,99802.72
2022-10-25T12:49:44.734Z,99801.75
2022-10-25T12:52:39.360Z,99806.78
2022-10-25T12:56:00.916Z,99799.78
2022-10-25T12:58:57.129Z,99793.66
2022-10-25T13:01:44.751Z,99801.41
2022-10-25T13:05:06.397Z,99789.69
2022-10-25T13:07:36.582Z,99790.69
2022-10-25T13:10:14.913Z,99795.19
2022-10-25T13:12:43.319Z,99804.88
2022-10-25T13:15:19.041Z,99801.59
2022-10-25T13:18:01.260Z,99812.31
2022-10-25T13:20:33.878Z,99804.06
2022-10-25T13:23:00.735Z,99805.16
2022-10-25T13:25:50.221Z,99796.84
2022-10-25T13:28:16.901Z,99799.56
2022-10-25T13:30:45.126Z,99797.13
2022-10-25T13:33:27.176Z,99794.75
2022-10-25T13:35:53.870Z,99789.84
2022-10-25T13:38:25.272Z,99799.47
2022-10-25T13:41:19.313Z,99796.56
2022-10-25T13:44:04.519Z,99792.53
2022-10-25T13:46:39.486Z,99790.91
2022-10-25T13:49:28.401Z,99792.13
2022-10-25T13:51:58.698Z,99792.31
2022-10-25T13:54:39.493Z,99788.22
2022-10-25T13:57:49.837Z,99794.00
2022-10-25T14:00:37.861Z,99781.44
2022-10-25T14:03:14.122Z,99787.53
2022-10-25T14:05:56.129Z,99779.13
2022-10-25T14:08:31.622Z,99764.66
2022-10-25T14:11:35.139Z,99771.72
2022-10-25T14:14:11.698Z,99783.03
2022-10-25T14:17:14.630Z,99784.16
2022-10-25T14:19:58.874Z,99787.63
2022-10-25T14:22:40.043Z,99792.88
2022-10-25T14:25:31.718Z,99797.25
2022-10-25T14:28:21.965Z,99793.25
2022-10-25T14:30:59.666Z,99793.25
2022-10-25T14:33:26.297Z,99788.94
2022-10-25T14:36:23.732Z,99789.72
2022-10-25T14:38:54.541Z,99784.44
2022-10-25T14:41:25.728Z,99779.97
2022-10-25T14:43:53.577Z,99782.44
2022-10-25T14:46:27.006Z,99778.88
2022-10-25T14:48:57.677Z,99780.47
2022-10-25T14:51:37.943Z,99776.84
2022-10-25T14:54:20.101Z,99771.56
2022-10-25T14:56:53.209Z,99765.34
2022-10-25T14:59:40.238Z,99766.06
2022-10-25T15:02:35.117Z,99772.00
2022-10-25T15:05:04.766Z,99764.00
2022-10-25T15:07:42.815Z,99762.06
2022-10-25T15:10:37.668Z,99758.69
2022-10-25T15:13:13.811Z,99766.31
2022-10-25T15:15:46.633Z,99763.66
2022-10-25T15:18:23.257Z,99754.19
2022-10-25T15:21:05.442Z,99751.59
2022-10-25T15:23:34.080Z,99750.69
2022-10-25T15:26:23.045Z,99750.63
2022-10-25T15:28:55.789Z,99747.91
2022-10-25T15:31:26.491Z,99741.81
2022-10-25T15:34:16.339Z,99749.59
2022-10-25T15:36:44.540Z,99747.03
2022-10-25T15:39:27.294Z,99742.09
2022-10-25T15:41:54.565Z,99737.03
2022-10-25T15:44:21.650Z,99743.16
2022-10-25T15:46:49.352Z,99734.72
2022-10-25T15:49:16.485Z,99740.91
2022-10-25T15:51:45.467Z,99738.41
2022-10-25T15:54:23.207Z,99738.59
2022-10-25T15:56:51.784Z,99738.78
2022-10-25T15:59:18.788Z,99737.97
2022-10-25T16:01:51.511Z,99731.38
2022-10-25T16:04:19.723Z,99744.28
2022-10-25T16:06:47.332Z,99735.94
2022-10-25T16:09:14.402Z,99744.66
2022-10-25T16:11:47.632Z,99733.78
2022-10-25T16:14:34.051Z,99731.59
2022-10-25T16:17:00.850Z,99737.78
2022-10-25T16:19:31.289Z,99744.88
2022-10-25T16:21:59.187Z,99735.69
2022-10-25T16:24:26.049Z,99734.19
2022-10-25T16:26:52.886Z,99728.47
2022-10-25T16:29:22.649Z,99732.94
2022-10-25T16:31:49.607Z,99726.34
2022-10-25T16:34:17.787Z,99729.09
2022-10-25T16:36:46.021Z,99728.44
2022-10-25T16:39:13.314Z,99725.25
2022-10-25T16:41:45.668Z,99729.72
2022-10-25T16:44:15.802Z,99729.22
2022-10-25T16:46:42.627Z,99724.41
2022-10-25T16:49:09.675Z,99732.41
2022-10-25T16:51:38.233Z,99730.03
2022-10-25T16:54:05.705Z,99727.00
2022-10-25T16:56:32.740Z,99723.25
2022-10-25T16:59:00.449Z,99728.75
2022-10-25T17:01:40.028Z,99721.53
2022-10-25T17:04:10.571Z,99713.53
2022-10-25T17:06:42.073Z,99720.66
2022-10-25T17:09:10.542Z,99721.75
2022-10-25T17:11:37.413Z,99716.94
2022-10-25T17:14:04.844Z,99718.09
2022-10-25T17:16:32.270Z,99715.06
2022-10-25T17:18:58.957Z,99720.44
2022-10-25T17:21:27.795Z,99713.09
2022-10-25T17:23:55.575Z,99711.53
2022-10-25T17:26:22.531Z,99710.09
2022-10-25T17:28:49.311Z,99709.53
2022-10-25T17:31:16.175Z,99709.81
2022-10-25T17:33:43.105Z,99708.41
2022-10-25T17:36:13.999Z,99713.09
2022-10-25T17:38:41.554Z,99717.69
2022-10-25T17:41:09.321Z,99709.47
2022-10-25T17:43:38.892Z,99713.16
2022-10-25T17:46:16.976Z,99704.00
2022-10-25T17:48:43.803Z,99705.16
2022-10-25T17:51:13.607Z,99701.03
2022-10-25T17:53:40.906Z,99705.50
2022-10-25T17:56:18.984Z,99714.09
2022-10-25T17:58:48.053Z,99713.44
2022-10-25T18:01:27.130Z,99711.06
2022-10-25T18:03:55.351Z,99708.59
2022-10-25T18:06:25.296Z,99713.84
2022-10-25T18:08:57.888Z,99719.03
2022-10-25T18:11:28.198Z,99712.41
2022-10-25T18:14:04.017Z,99709.13
2022-10-25T18:16:32.560Z,99708.28
2022-10-25T18:19:02.979Z,99704.13
2022-10-25T18:21:31.768Z,99699.19
2022-10-25T18:24:02.652Z,99699.25
2022-10-25T18:26:29.819Z,99698.47
2022-10-25T18:28:58.405Z,99701.16
2022-10-25T18:31:27.015Z,99699.59
2022-10-25T18:33:55.395Z,99698.00
2022-10-25T18:36:22.161Z,99706.63
2022-10-25T18:38:50.098Z,99704.19
2022-10-25T18:41:20.692Z,99705.97
2022-10-25T18:43:47.721Z,99707.78
2022-10-25T18:46:15.274Z,99695.13
2022-10-25T18:48:42.207Z,99702.88
2022-10-25T18:51:14.202Z,99691.16
2022-10-25T18:53:41.326Z,99700.63
2022-10-25T18:56:16.997Z,99700.72
2022-10-25T18:58:46.698Z,99693.97
2022-10-25T19:01:17.606Z,99701.75
2022-10-25T19:03:44.802Z,99695.91
2022-10-25T19:06:12.508Z,99687.50
2022-10-25T19:08:40.051Z,99694.41
2022-10-25T19:11:13.191Z,99686.88
2022-10-25T19:13:41.050Z,99681.88
2022-10-25T19:16:09.440Z,99687.00
2022-10-25T19:18:37.501Z,99681.16
2022-10-25T19:21:10.543Z,99679.56
2022-10-25T19:23:39.178Z,99679.63
2022-10-25T19:26:09.557Z,99672.91
2022-10-25T19:28:37.030Z,99672.94
2022-10-25T19:31:10.422Z,99665.41
2022-10-25T19:33:37.599Z,99674.75
2022-10-25T19:36:10.447Z,99670.53
2022-10-25T19:38:38.914Z,99667.19
2022-10-25T19:41:09.591Z,99667.28
2022-10-25T19:43:36.740Z,99668.16
2022-10-25T19:46:06.895Z,99667.34
2022-10-25T19:48:35.108Z,99663.19
2022-10-25T19:51:07.607Z,99659.75
2022-10-25T19:53:34.437Z,99653.91
2022-10-25T19:56:06.659Z,99651.34
2022-10-25T19:58:33.529Z,99648.84
2022-10-25T20:01:13.386Z,99648.91
2022-10-25T20:03:41.811Z,99651.53
2022-10-25T20:06:24.290Z,99646.47
2022-10-25T20:08:52.805Z,99642.31
2022-10-25T20:11:20.776Z,99641.50
2022-10-25T20:13:47.598Z,99636.47
2022-10-25T20:16:14.947Z,99632.28
2022-10-25T20:18:42.721Z,99631.47
2022-10-25T20:21:19.150Z,99629.81
2022-10-25T20:23:51.194Z,99628.16
2022-10-25T20:26:31.247Z,99634.13
2022-10-25T20:29:02.581Z,99627.41
2022-10-25T20:31:32.918Z,99625.72
2022-10-25T20:34:01.475Z,99620.63
2022-10-25T20:36:28.468Z,99624.88
2022-10-25T20:38:55.299Z,99621.44
2022-10-25T20:41:28.287Z,99614.69
2022-10-25T20:44:03.787Z,99623.19
2022-10-25T20:46:32.992Z,99621.50
2022-10-25T20:49:01.922Z,99612.16
2022-10-25T20:51:29.007Z,99612.16
2022-10-25T20:53:56.900Z,99613.84
2022-10-25T20:56:24.305Z,99611.34
2022-10-25T20:58:51.523Z,99618.97
2022-10-25T21:01:18.689Z,99606.22
2022-10-25T21:03:45.586Z,99610.50
2022-10-25T21:06:14.175Z,99611.31
2022-10-25T21:08:41.409Z,99607.94
2022-10-25T21:11:12.618Z,99602.03
2022-10-25T21:13:39.977Z,99604.56
2022-10-25T21:16:12.974Z,99608.03
2022-10-25T21:18:40.560Z,99600.41
2022-10-25T21:21:14.936Z,99600.44
2022-10-25T21:23:41.681Z,99601.28
2022-10-25T21:26:09.414Z,99596.22
2022-10-25T21:28:39.267Z,99599.59
2022-10-25T21:31:15.430Z,99604.69
2022-10-25T21:33:51.280Z,99600.44
2022-10-25T21:36:20.256Z,99595.34
2022-10-25T21:38:47.939Z,99600.44
2022-10-25T21:41:26.547Z,99599.63
2022-10-25T21:43:55.065Z,99594.50
2022-10-25T21:46:23.913Z,99601.31
2022-10-25T21:48:51.491Z,99601.31
2022-10-25T21:51:20.772Z,99604.69
2022-10-25T21:53:48.399Z,99596.19
2022-10-25T21:56:20.575Z,99597.88
2022-10-25T21:58:49.781Z,99603.84
2022-10-25T22:01:21.165Z,99595.34
2022-10-25T22:03:48.626Z,99597.84
2022-10-25T22:06:19.740Z,99587.69
2022-10-25T22:08:47.913Z,99587.66
2022-10-25T22:11:17.998Z,99588.50
2022-10-25T22:13:45.346Z,99594.44
2022-10-25T22:16:18.460Z,99581.69
2022-10-25T22:18:58.953Z,99587.59
2022-10-25T22:21:29.394Z,99593.53
2022-10-25T22:23:56.318Z,99586.66
2022-10-25T22:26:23.520Z,99584.13
2022-10-25T22:28:55.901Z,99586.59
2022-10-25T22:31:24.308Z,99582.28
2022-10-25T22:33:57.193Z,99589.94
2022-10-25T22:36:28.252Z,99587.41
2022-10-25T22:38:55.707Z,99578.84
2022-10-25T22:41:25.861Z,99578.84
2022-10-25T22:43:53.211Z,99585.59
2022-10-25T22:46:27.491Z,99583.03
2022-10-25T22:48:57.788Z,99575.38
2022-10-25T22:51:27.809Z,99577.09
2022-10-25T22:53:55.089Z,99572.78
2022-10-25T22:56:28.618Z,99571.94
2022-10-25T22:58:59.795Z,99577.03
2022-10-25T23:01:36.118Z,99569.38
2022-10-25T23:04:06.800Z,99571.91
2022-10-25T23:06:38.031Z,99562.56
2022-10-25T23:09:09.081Z,99559.16
2022-10-25T23:11:38.578Z,99561.72
2022-10-25T23:14:07.323Z,99556.63
2022-10-25T23:16:34.522Z,99553.22
2022-10-25T23:19:01.400Z,99554.91
2022-10-25T23:21:32.314Z,99559.13
2022-10-25T23:24:00.351Z,99557.44
2022-10-25T23:26:33.537Z,99557.41
2022-10-25T23:29:01.150Z,99556.56
2022-10-25T23:31:30.408Z,99559.06
2022-10-25T23:34:00.125Z,99559.03
2022-10-25T23:36:30.647Z,99556.44
2022-10-25T23:38:58.359Z,99554.72
2022-10-25T23:41:25.138Z,99550.41
2022-10-25T23:43:52.077Z,99545.25
2022-10-25T23:46:19.138Z,99541.84
2022-10-25T23:48:46.111Z,99541.75
2022-10-25T23:51:17.281Z,99535.75
2022-10-25T23:53:45.547Z,99539.97
2022-10-25T23:56:14.055Z,99527.25
2022-10-25T23:58:41.542Z,99538.28
